Time;durP1;ratioP1;P1;durP2;ratioP2;P2;SDS_P1;SDS_P2;PMS_P1;PMS_P2;Temp;Humidity;BMP_temperature;BMP_pressure;BME280_temperature;BME280_humidity;BME280_pressure;Samples;Min_cycle;Max_cycle;Signal;HPM_P1;HPM_P2
2022/03/27 00:02:20;;;;;;;0.00;0.00;;;12.70;54.80;;;;;;4144286;28;20452;-68
2022/03/27 00:04:43;;;;;;;0.00;0.00;;;12.60;54.80;;;;;;4144717;28;20038;-71
2022/03/27 00:07:05;;;;;;;0.00;0.00;;;12.60;54.70;;;;;;4126740;28;20078;-68
2022/03/27 00:09:29;;;;;;;0.00;0.00;;;12.60;54.70;;;;;;4133735;28;20073;-69
2022/03/27 00:11:52;;;;;;;0.00;0.00;;;12.60;54.60;;;;;;4133900;28;20046;-68
2022/03/27 00:14:19;;;;;;;0.00;0.00;;;12.60;54.60;;;;;;4133428;28;20097;-69
2022/03/27 00:16:41;;;;;;;0.00;0.00;;;12.60;54.60;;;;;;4133694;28;20117;-70
2022/03/27 00:19:03;;;;;;;0.00;0.00;;;12.60;54.50;;;;;;4133431;28;20781;-69
2022/03/27 00:21:28;;;;;;;0.00;0.00;;;12.50;54.40;;;;;;4133573;28;20062;-69
2022/03/27 00:23:55;;;;;;;0.00;0.00;;;12.40;54.60;;;;;;4133469;28;20542;-66
2022/03/27 00:26:21;;;;;;;0.00;0.00;;;12.40;54.70;;;;;;4133141;28;20062;-70
2022/03/27 00:28:46;;;;;;;0.00;0.00;;;12.40;54.60;;;;;;4133659;28;20081;-67
2022/03/27 00:31:14;;;;;;;0.00;0.00;;;12.40;54.60;;;;;;4133547;28;20077;-68
2022/03/27 00:33:37;;;;;;;0.00;0.00;;;12.30;54.70;;;;;;4133390;28;20142;-66
2022/03/27 00:36:07;;;;;;;0.00;0.00;;;12.30;54.60;;;;;;4133184;28;20428;-68
2022/03/27 00:38:29;;;;;;;0.00;0.00;;;12.20;54.60;;;;;;4106741;28;20592;-68
2022/03/27 00:40:56;;;;;;;0.00;0.00;;;12.20;54.50;;;;;;4119868;28;20377;-69
2022/03/27 00:43:22;;;;;;;0.00;0.00;;;12.20;54.30;;;;;;4133083;28;20050;-69
2022/03/27 00:45:47;;;;;;;0.00;0.00;;;12.20;54.30;;;;;;4133220;28;20054;-68
2022/03/27 00:48:10;;;;;;;0.00;0.00;;;12.20;54.40;;;;;;4132842;28;20058;-67
2022/03/27 00:50:34;;;;;;;0.00;0.00;;;12.10;54.40;;;;;;4133352;28;20124;-68
2022/03/27 00:52:57;;;;;;;0.00;0.00;;;12.10;54.50;;;;;;4119792;28;20641;-71
2022/03/27 00:55:22;;;;;;;0.00;0.00;;;12.20;54.60;;;;;;4132846;28;20062;-71
2022/03/27 00:57:44;;;;;;;0.00;0.00;;;12.00;54.90;;;;;;4133015;28;20047;-69
2022/03/27 01:00:17;;;;;;;0.00;0.00;;;11.90;55.00;;;;;;4132627;28;20061;-67
2022/03/27 01:02:42;;;;;;;0.00;0.00;;;11.90;55.10;;;;;;4133718;28;20077;-69
2022/03/27 01:05:13;;;;;;;0.00;0.00;;;11.90;55.10;;;;;;4133667;28;20475;-68
2022/03/27 01:07:38;;;;;;;0.00;0.00;;;11.90;55.10;;;;;;4133648;28;20044;-68
2022/03/27 01:10:04;;;;;;;0.00;0.00;;;11.90;55.10;;;;;;4145968;28;20066;-70
2022/03/27 01:12:36;;;;;;;0.00;0.00;;;11.90;55.20;;;;;;4133060;28;20469;-67
2022/03/27 01:15:01;;;;;;;0.00;0.00;;;11.90;55.30;;;;;;4146048;28;20417;-70
2022/03/27 01:17:28;;;;;;;0.00;0.00;;;11.80;55.50;;;;;;4148450;28;20121;-68
2022/03/27 01:19:54;;;;;;;0.00;0.00;;;11.80;55.70;;;;;;4147838;28;20050;-67
2022/03/27 01:22:22;;;;;;;0.00;0.00;;;11.80;55.60;;;;;;4134945;28;20058;-71
2022/03/27 01:24:52;;;;;;;0.00;0.00;;;11.70;55.40;;;;;;4148699;28;20061;-68
2022/03/27 01:27:18;;;;;;;0.00;0.00;;;11.70;55.60;;;;;;4148707;28;20056;-69
2022/03/27 01:29:43;;;;;;;0.00;0.00;;;11.70;55.70;;;;;;4148739;28;20133;-67
2022/03/27 01:32:07;;;;;;;0.00;0.00;;;11.70;55.50;;;;;;4132179;28;20050;-70
2022/03/27 01:34:31;;;;;;;0.00;0.00;;;11.70;55.30;;;;;;4149403;28;20120;-72
2022/03/27 01:36:53;;;;;;;0.00;0.00;;;11.70;55.10;;;;;;4134703;28;20058;-70
2022/03/27 01:39:18;;;;;;;0.00;0.00;;;11.70;55.20;;;;;;4149434;28;20045;-66
2022/03/27 01:41:44;;;;;;;0.00;0.00;;;11.70;55.10;;;;;;4149235;28;20129;-69
2022/03/27 01:44:11;;;;;;;0.00;0.00;;;11.70;54.90;;;;;;4132151;28;20152;-71
2022/03/27 01:46:39;;;;;;;0.00;0.00;;;11.60;54.80;;;;;;4148401;28;20472;-68
2022/03/27 01:49:16;;;;;;;0.00;0.00;;;11.50;54.80;;;;;;4148411;28;20050;-69
2022/03/27 01:51:47;;;;;;;0.00;0.00;;;11.40;54.70;;;;;;4149236;28;20050;-70
2022/03/27 01:54:22;;;;;;;0.00;0.00;;;11.40;54.70;;;;;;4147990;28;20053;-69
2022/03/27 01:57:06;;;;;;;0.00;0.00;;;11.40;54.70;;;;;;4149029;28;20439;-69
2022/03/27 01:59:39;;;;;;;0.00;0.00;;;11.30;54.80;;;;;;4148320;28;20046;-70
2022/03/27 02:02:23;;;;;;;0.00;0.00;;;11.30;55.00;;;;;;4148660;28;20057;-68
2022/03/27 02:04:53;;;;;;;0.00;0.00;;;11.30;55.40;;;;;;4149041;28;20133;-68
2022/03/27 02:07:34;;;;;;;0.00;0.00;;;11.20;55.60;;;;;;4148859;28;20404;-71
2022/03/27 02:10:12;;;;;;;0.00;0.00;;;11.10;55.80;;;;;;4148576;28;20069;-67
2022/03/27 02:12:44;;;;;;;0.00;0.00;;;11.00;55.90;;;;;;4148765;28;20049;-72
2022/03/27 02:15:23;;;;;;;0.00;0.00;;;11.10;55.70;;;;;;4148844;28;20448;-69
2022/03/27 02:18:01;;;;;;;0.00;0.00;;;11.10;55.50;;;;;;4148790;28;20050;-69
2022/03/27 02:20:28;;;;;;;0.00;0.00;;;11.00;55.40;;;;;;4161325;28;20049;-69
2022/03/27 02:22:50;;;;;;;0.00;0.00;;;10.90;55.30;;;;;;4147916;28;20120;-70
2022/03/27 02:25:16;;;;;;;0.00;0.00;;;11.00;55.10;;;;;;4147964;28;20563;-71
2022/03/27 02:27:41;;;;;;;0.00;0.00;;;11.10;55.00;;;;;;4147924;28;20050;-67
2022/03/27 02:30:03;;;;;;;0.00;0.00;;;11.10;55.00;;;;;;4134087;28;20380;-68
2022/03/27 02:32:25;;;;;;;0.00;0.00;;;11.00;55.10;;;;;;4147621;28;20046;-70
2022/03/27 02:34:50;;;;;;;0.00;0.00;;;11.00;55.10;;;;;;4147903;28;20053;-69
2022/03/27 02:37:14;;;;;;;0.00;0.00;;;11.10;55.00;;;;;;4134219;28;20050;-70
2022/03/27 02:39:36;;;;;;;0.00;0.00;;;11.10;54.80;;;;;;4147690;28;20670;-67
2022/03/27 02:42:00;;;;;;;0.00;0.00;;;11.10;54.80;;;;;;4147707;28;20045;-68
2022/03/27 02:44:22;;;;;;;0.00;0.00;;;11.10;54.90;;;;;;4133610;28;20069;-68
2022/03/27 02:46:45;;;;;;;0.00;0.00;;;11.10;54.80;;;;;;4147787;28;20427;-71
2022/03/27 02:49:08;;;;;;;0.00;0.00;;;11.10;54.90;;;;;;4133990;28;20054;-69
2022/03/27 02:51:30;;;;;;;0.00;0.00;;;11.00;54.90;;;;;;4134026;28;20046;-65
2022/03/27 02:53:52;;;;;;;0.00;0.00;;;10.90;55.10;;;;;;4147701;28;20064;-67
2022/03/27 02:56:14;;;;;;;0.00;0.00;;;10.90;55.20;;;;;;4132223;28;20046;-68
2022/03/27 02:58:39;;;;;;;0.00;0.00;;;10.90;55.10;;;;;;4147791;28;20384;-67
2022/03/27 03:01:01;;;;;;;0.00;0.00;;;10.80;55.00;;;;;;4133929;28;20043;-69
2022/03/27 03:03:26;;;;;;;0.00;0.00;;;10.70;55.20;;;;;;4147412;28;20073;-69
2022/03/27 03:05:49;;;;;;;0.00;0.00;;;10.70;55.30;;;;;;4133773;28;20047;-66
2022/03/27 03:08:11;;;;;;;0.00;0.00;;;10.70;55.30;;;;;;4118441;28;20047;-68
2022/03/27 03:10:33;;;;;;;0.00;0.00;;;10.60;55.30;;;;;;4134154;28;20073;-68
2022/03/27 03:12:56;;;;;;;0.00;0.00;;;10.50;55.50;;;;;;4133874;28;20369;-68
2022/03/27 03:15:18;;;;;;;0.00;0.00;;;10.50;55.60;;;;;;4147569;28;20038;-70
2022/03/27 03:17:43;;;;;;;0.00;0.00;;;10.30;55.70;;;;;;4147479;28;20046;-71
2022/03/27 03:20:07;;;;;;;0.00;0.00;;;10.30;55.70;;;;;;4131164;28;20116;-68
2022/03/27 03:22:29;;;;;;;0.00;0.00;;;10.30;55.70;;;;;;4147550;28;20045;-67
2022/03/27 03:24:53;;;;;;;0.00;0.00;;;10.30;55.60;;;;;;4134274;28;20053;-68
2022/03/27 03:27:16;;;;;;;0.00;0.00;;;10.40;55.40;;;;;;4147325;28;20046;-70
2022/03/27 03:29:38;;;;;;;0.00;0.00;;;10.50;55.30;;;;;;4147282;28;20041;-68
2022/03/27 03:32:00;;;;;;;0.00;0.00;;;10.50;55.20;;;;;;4120201;28;20074;-70
2022/03/27 03:34:24;;;;;;;0.00;0.00;;;10.50;55.30;;;;;;4133276;28;20464;-68
2022/03/27 03:36:49;;;;;;;0.00;0.00;;;10.40;55.40;;;;;;4133416;28;20133;-73
2022/03/27 03:39:11;;;;;;;0.00;0.00;;;10.40;55.50;;;;;;4147299;28;20056;-69
2022/03/27 03:41:36;;;;;;;0.00;0.00;;;10.40;55.90;;;;;;4133997;28;20077;-70
2022/03/27 03:44:17;;;;;;;0.00;0.00;;;10.30;56.30;;;;;;4150145;28;20145;-67
2022/03/27 03:46:46;;;;;;;0.00;0.00;;;10.30;56.70;;;;;;4150258;28;20081;-69
2022/03/27 03:49:10;;;;;;;0.00;0.00;;;10.30;57.00;;;;;;4136819;28;20493;-68
2022/03/27 03:51:39;;;;;;;0.00;0.00;;;10.30;57.10;;;;;;4150139;28;20081;-71
2022/03/27 03:54:13;;;;;;;0.00;0.00;;;10.30;57.10;;;;;;4150310;28;20145;-68
2022/03/27 03:56:40;;;;;;;0.00;0.00;;;10.30;57.20;;;;;;4122445;28;20046;-69
2022/03/27 03:59:02;;;;;;;0.00;0.00;;;10.20;57.20;;;;;;4150417;28;20448;-68
2022/03/27 04:01:49;;;;;;;0.00;0.00;;;10.20;57.10;;;;;;4136717;28;20046;-73
2022/03/27 04:04:13;;;;;;;0.00;0.00;;;10.20;57.20;;;;;;4149936;28;20050;-68
2022/03/27 04:06:35;;;;;;;0.00;0.00;;;10.20;57.10;;;;;;4136672;28;20057;-72
2022/03/27 04:08:57;;;;;;;0.00;0.00;;;10.10;57.00;;;;;;4150089;28;20493;-71
2022/03/27 04:11:21;;;;;;;0.00;0.00;;;10.20;57.00;;;;;;4150132;28;20424;-69
2022/03/27 04:13:46;;;;;;;0.00;0.00;;;10.20;56.80;;;;;;4150204;28;20057;-70
2022/03/27 04:16:11;;;;;;;0.00;0.00;;;10.30;56.60;;;;;;4149819;28;20137;-69
2022/03/27 04:18:35;;;;;;;0.00;0.00;;;10.20;56.50;;;;;;4136476;28;20072;-67
2022/03/27 04:20:57;;;;;;;0.00;0.00;;;10.20;56.50;;;;;;4136466;28;20062;-69
2022/03/27 04:23:21;;;;;;;0.00;0.00;;;10.20;56.50;;;;;;4149764;28;20057;-71
2022/03/27 04:25:43;;;;;;;0.00;0.00;;;10.20;56.60;;;;;;4149803;28;20053;-68
2022/03/27 04:28:09;;;;;;;0.00;0.00;;;10.10;56.70;;;;;;4149135;28;20100;-68
2022/03/27 04:30:33;;;;;;;0.00;0.00;;;10.10;56.80;;;;;;4149896;28;20112;-69
2022/03/27 04:32:55;;;;;;;0.00;0.00;;;10.10;57.00;;;;;;4136116;28;20170;-68
2022/03/27 04:35:17;;;;;;;0.00;0.00;;;10.20;57.10;;;;;;4149782;28;20042;-67
2022/03/27 04:37:43;;;;;;;0.00;0.00;;;10.10;57.10;;;;;;4135899;28;20042;-70
2022/03/27 04:40:05;;;;;;;0.00;0.00;;;10.10;57.30;;;;;;4135611;28;20046;-69
2022/03/27 04:42:28;;;;;;;0.00;0.00;;;10.00;57.50;;;;;;4149692;28;20073;-71
2022/03/27 04:44:50;;;;;;;0.00;0.00;;;10.00;57.80;;;;;;4149265;28;20045;-67
2022/03/27 04:47:11;;;;;;;0.00;0.00;;;10.00;57.90;;;;;;4135809;28;20046;-68
2022/03/27 04:49:36;;;;;;;0.00;0.00;;;10.00;58.00;;;;;;4135797;28;20081;-70
2022/03/27 04:52:01;;;;;;;0.00;0.00;;;10.00;58.10;;;;;;4149270;28;20108;-70
2022/03/27 04:54:23;;;;;;;0.00;0.00;;;10.00;57.90;;;;;;4135021;28;20050;-71
2022/03/27 04:56:50;;;;;;;0.00;0.00;;;10.00;57.80;;;;;;4148956;28;20455;-70
2022/03/27 04:59:14;;;;;;;0.00;0.00;;;9.90;58.10;;;;;;4149004;28;20038;-69
2022/03/27 05:01:36;;;;;;;0.00;0.00;;;9.80;57.70;;;;;;4135406;28;20049;-69
2022/03/27 05:03:58;;;;;;;0.00;0.00;;;9.70;57.70;;;;;;4135660;28;20100;-70
2022/03/27 05:06:20;;;;;;;0.00;0.00;;;9.70;57.80;;;;;;4121702;28;20058;-69
2022/03/27 05:08:44;;;;;;;0.00;0.00;;;9.70;57.70;;;;;;4135359;28;20366;-67
2022/03/27 05:11:06;;;;;;;0.00;0.00;;;9.80;57.60;;;;;;4149083;28;20107;-67
2022/03/27 05:13:30;;;;;;;0.00;0.00;;;9.70;57.50;;;;;;4135654;28;20046;-70
2022/03/27 05:15:52;;;;;;;0.00;0.00;;;9.70;57.40;;;;;;4149017;28;20109;-67
2022/03/27 05:18:14;;;;;;;0.00;0.00;;;9.60;57.30;;;;;;4120205;28;20077;-70
2022/03/27 05:20:42;;;;;;;0.00;0.00;;;9.60;57.40;;;;;;4148795;28;20140;-67
2022/03/27 05:23:04;;;;;;;0.00;0.00;;;9.50;57.40;;;;;;4135321;28;20042;-66
2022/03/27 05:25:26;;;;;;;0.00;0.00;;;9.50;57.50;;;;;;4135089;28;20053;-68
2022/03/27 05:27:53;;;;;;;0.00;0.00;;;9.50;57.40;;;;;;4148717;28;20042;-68
2022/03/27 05:30:17;;;;;;;0.00;0.00;;;9.50;57.30;;;;;;4134723;28;20084;-68
2022/03/27 05:32:39;;;;;;;0.00;0.00;;;9.50;57.30;;;;;;4148920;28;20104;-68
2022/03/27 05:35:01;;;;;;;0.00;0.00;;;9.50;57.40;;;;;;4135098;28;20042;-69
2022/03/27 05:37:23;;;;;;;0.00;0.00;;;9.50;57.20;;;;;;4148525;28;20099;-68
2022/03/27 05:39:45;;;;;;;0.00;0.00;;;9.50;57.20;;;;;;4135137;28;20053;-69
2022/03/27 05:42:07;;;;;;;0.00;0.00;;;9.50;57.30;;;;;;4148159;28;20432;-66
2022/03/27 05:44:29;;;;;;;0.00;0.00;;;9.40;57.30;;;;;;4134829;28;20047;-69
2022/03/27 05:46:54;;;;;;;0.00;0.00;;;9.40;57.30;;;;;;4148699;28;20384;-68
2022/03/27 05:49:15;;;;;;;0.00;0.00;;;9.40;57.40;;;;;;4134816;28;20101;-72
2022/03/27 05:51:40;;;;;;;0.00;0.00;;;9.50;57.40;;;;;;4134817;28;20046;-68
2022/03/27 05:54:02;;;;;;;0.00;0.00;;;9.50;57.30;;;;;;4134784;28;20038;-67
2022/03/27 05:56:26;;;;;;;0.00;0.00;;;9.60;57.20;;;;;;4134202;28;20057;-69
2022/03/27 05:58:51;;;;;;;0.00;0.00;;;9.80;57.20;;;;;;4148521;28;20533;-70
2022/03/27 06:01:14;;;;;;;0.00;0.00;;;9.90;57.00;;;;;;4148333;28;20362;-68
2022/03/27 06:03:43;;;;;;;0.00;0.00;;;10.00;56.80;;;;;;4148192;28;20060;-67
2022/03/27 06:06:07;;;;;;;0.00;0.00;;;9.90;57.20;;;;;;4133723;28;20112;-66
2022/03/27 06:08:29;;;;;;;0.00;0.00;;;10.00;57.40;;;;;;4148369;28;20050;-69
2022/03/27 06:10:51;;;;;;;0.00;0.00;;;10.10;57.40;;;;;;4134755;28;20499;-68
2022/03/27 06:13:17;;;;;;;0.00;0.00;;;10.20;57.30;;;;;;4148183;28;20054;-69
2022/03/27 06:15:44;;;;;;;0.00;0.00;;;10.30;57.30;;;;;;4134526;28;20451;-68
2022/03/27 06:18:12;;;;;;;0.00;0.00;;;10.50;56.90;;;;;;4131766;28;20085;-70
2022/03/27 06:20:39;;;;;;;0.00;0.00;;;10.50;57.00;;;;;;4134722;28;20143;-67
2022/03/27 06:23:01;;;;;;;0.00;0.00;;;10.60;57.10;;;;;;4134545;28;20089;-71
2022/03/27 06:25:25;;;;;;;0.00;0.00;;;10.80;57.50;;;;;;4134100;28;20061;-67
2022/03/27 06:27:51;;;;;;;0.00;0.00;;;11.00;57.80;;;;;;4147671;28;20054;-67
2022/03/27 06:30:18;;;;;;;0.00;0.00;;;11.20;57.90;;;;;;4132426;28;20457;-69
2022/03/27 06:32:43;;;;;;;0.00;0.00;;;11.10;58.70;;;;;;4134407;28;20064;-71
2022/03/27 06:35:06;;;;;;;0.00;0.00;;;11.20;58.70;;;;;;4134620;28;20077;-70
2022/03/27 06:37:31;;;;;;;0.00;0.00;;;11.20;58.30;;;;;;4147847;28;20103;-70
2022/03/27 06:39:54;;;;;;;0.00;0.00;;;11.20;58.90;;;;;;4134337;28;20381;-69
2022/03/27 06:42:17;;;;;;;0.00;0.00;;;11.00;59.60;;;;;;4119282;28;20062;-70
2022/03/27 06:44:39;;;;;;;0.00;0.00;;;11.10;60.40;;;;;;4120537;28;20084;-69
2022/03/27 06:47:01;;;;;;;0.00;0.00;;;11.50;60.20;;;;;;4147770;28;20164;-69
2022/03/27 06:49:25;;;;;;;0.00;0.00;;;11.80;59.70;;;;;;4147799;28;20377;-70
2022/03/27 06:51:52;;;;;;;0.00;0.00;;;11.80;59.30;;;;;;4134471;28;20077;-69
2022/03/27 06:54:16;;;;;;;0.00;0.00;;;11.60;58.90;;;;;;4133598;28;20116;-72
2022/03/27 06:56:41;;;;;;;0.00;0.00;;;11.40;59.00;;;;;;4133687;28;20050;-70
2022/03/27 06:59:09;;;;;;;0.00;0.00;;;11.30;58.20;;;;;;4147821;28;20750;-71
2022/03/27 07:04:11;;;;;;;0.00;0.00;;;11.60;60.30;;;;;;4133590;28;20539;-72
2022/03/27 07:06:33;;;;;;;0.00;0.00;;;11.70;59.00;;;;;;4147427;28;20042;-69
2022/03/27 07:09:02;;;;;;;0.00;0.00;;;11.80;58.20;;;;;;4147687;28;20080;-68
2022/03/27 07:11:27;;;;;;;0.00;0.00;;;12.10;57.00;;;;;;4134052;28;20069;-69
2022/03/27 07:13:53;;;;;;;0.00;0.00;;;12.10;57.80;;;;;;4134341;28;20046;-69
2022/03/27 07:16:20;;;;;;;0.00;0.00;;;12.40;57.90;;;;;;4132880;28;20443;-69
2022/03/27 07:18:43;;;;;;;0.00;0.00;;;12.70;57.50;;;;;;4150536;28;20133;-70
2022/03/27 07:21:10;;;;;;;0.00;0.00;;;12.90;57.70;;;;;;4123647;28;20043;-70
2022/03/27 07:23:37;;;;;;;0.00;0.00;;;13.20;57.90;;;;;;4137428;28;20081;-68
2022/03/27 07:26:01;;;;;;;0.00;0.00;;;13.30;57.70;;;;;;4150859;28;20054;-70
2022/03/27 07:28:25;;;;;;;0.00;0.00;;;13.60;57.10;;;;;;4136502;28;20042;-69
2022/03/27 07:30:47;;;;;;;0.00;0.00;;;13.90;56.70;;;;;;4150495;28;20046;-70
2022/03/27 07:33:12;;;;;;;0.00;0.00;;;13.90;56.60;;;;;;4136956;28;20042;-69
2022/03/27 07:35:39;;;;;;;0.00;0.00;;;13.90;55.90;;;;;;4150464;28;20148;-70
2022/03/27 07:38:08;;;;;;;0.00;0.00;;;13.80;56.30;;;;;;4134013;28;20447;-66
2022/03/27 07:40:30;;;;;;;0.00;0.00;;;14.10;56.20;;;;;;4150674;28;20099;-68
2022/03/27 07:42:58;;;;;;;0.00;0.00;;;14.20;55.70;;;;;;4136768;28;20508;-72
2022/03/27 07:45:25;;;;;;;0.00;0.00;;;14.60;55.20;;;;;;4150313;28;20045;-70
2022/03/27 07:47:48;;;;;;;0.00;0.00;;;14.80;54.10;;;;;;4150291;28;20416;-69
2022/03/27 07:50:11;;;;;;;0.00;0.00;;;15.00;54.00;;;;;;4134375;28;20094;-68
2022/03/27 07:52:37;;;;;;;0.00;0.00;;;15.20;53.60;;;;;;4136681;28;20369;-69
2022/03/27 07:54:59;;;;;;;0.00;0.00;;;15.40;52.90;;;;;;4136305;28;20046;-69
2022/03/27 07:57:22;;;;;;;0.00;0.00;;;15.60;52.90;;;;;;4150142;28;20053;-68
2022/03/27 07:59:47;;;;;;;0.00;0.00;;;15.80;52.10;;;;;;4150172;28;20100;-68
2022/03/27 08:02:09;;;;;;;0.00;0.00;;;15.70;50.30;;;;;;4121128;28;20050;-71
2022/03/27 08:04:34;;;;;;;0.00;0.00;;;15.40;50.20;;;;;;4137388;28;20134;-67
2022/03/27 08:06:58;;;;;;;0.00;0.00;;;15.60;49.30;;;;;;4137341;28;20532;-70
2022/03/27 08:09:20;;;;;;;0.00;0.00;;;15.60;49.60;;;;;;4150471;28;20042;-70
2022/03/27 08:11:45;;;;;;;0.00;0.00;;;16.00;49.50;;;;;;4136785;28;20046;-69
2022/03/27 08:14:10;;;;;;;0.00;0.00;;;16.20;48.50;;;;;;4134274;28;20055;-71
2022/03/27 08:16:32;;;;;;;0.00;0.00;;;15.80;48.00;;;;;;4150320;28;20050;-68
2022/03/27 08:18:56;;;;;;;0.00;0.00;;;15.40;48.90;;;;;;4150329;28;20050;-69
2022/03/27 08:21:21;;;;;;;0.00;0.00;;;15.40;49.10;;;;;;4150063;28;20053;-69
2022/03/27 08:23:43;;;;;;;0.00;0.00;;;15.60;50.20;;;;;;4150242;28;20108;-71
2022/03/27 08:28:50;;;;;;;0.00;0.00;;;16.60;49.20;;;;;;4149739;28;20108;-75
2022/03/27 08:31:17;;;;;;;0.00;0.00;;;16.70;46.70;;;;;;4150251;28;20068;-74
2022/03/27 08:33:39;;;;;;;0.00;0.00;;;16.70;46.10;;;;;;4150016;28;20042;-74
2022/03/27 08:36:04;;;;;;;0.00;0.00;;;16.40;45.40;;;;;;4136435;28;20041;-77
2022/03/27 08:38:28;;;;;;;0.00;0.00;;;16.00;46.00;;;;;;4149588;28;20052;-75
2022/03/27 08:40:54;;;;;;;0.00;0.00;;;16.20;46.90;;;;;;4136717;28;20049;-78
2022/03/27 08:43:17;;;;;;;0.00;0.00;;;16.70;46.30;;;;;;4136416;28;20516;-77
2022/03/27 08:45:40;;;;;;;0.00;0.00;;;16.30;45.70;;;;;;4136297;28;20068;-74
2022/03/27 08:48:08;;;;;;;0.00;0.00;;;16.00;46.90;;;;;;4122954;28;20050;-73
2022/03/27 08:50:58;;;;;;;0.00;0.00;;;15.70;47.10;;;;;;4123765;28;20042;-75
2022/03/27 08:53:37;;;;;;;0.00;0.00;;;15.20;48.00;;;;;;4149994;28;20041;-74
2022/03/27 08:56:06;;;;;;;0.00;0.00;;;14.90;48.90;;;;;;4136550;28;20054;-73
2022/03/27 08:58:36;;;;;;;0.00;0.00;;;15.40;47.90;;;;;;4135607;28;20156;-75
2022/03/27 09:01:00;;;;;;;0.00;0.00;;;15.90;47.30;;;;;;4136288;28;20078;-77
2022/03/27 09:03:26;;;;;;;0.00;0.00;;;16.40;46.40;;;;;;4136256;28;20401;-76
2022/03/27 09:05:51;;;;;;;0.00;0.00;;;17.00;45.30;;;;;;4136237;28;20054;-75
2022/03/27 09:08:17;;;;;;;0.00;0.00;;;17.30;44.20;;;;;;4149290;28;20080;-76
2022/03/27 09:10:42;;;;;;;0.00;0.00;;;17.60;43.00;;;;;;4136230;28;20117;-78
2022/03/27 09:13:06;;;;;;;0.00;0.00;;;17.50;43.60;;;;;;4149563;28;20077;-77
2022/03/27 09:15:32;;;;;;;0.00;0.00;;;17.80;43.80;;;;;;4136448;28;20415;-71
2022/03/27 09:18:04;;;;;;;0.00;0.00;;;17.60;43.00;;;;;;4149242;28;20097;-71
2022/03/27 09:20:47;;;;;;;0.00;0.00;;;17.70;43.80;;;;;;4121896;28;20488;-71
2022/03/27 09:23:25;;;;;;;0.00;0.00;;;17.60;43.00;;;;;;4135622;28;20046;-68
2022/03/27 09:26:00;;;;;;;0.00;0.00;;;18.00;43.20;;;;;;4135493;28;20042;-70
2022/03/27 09:28:29;;;;;;;0.00;0.00;;;17.90;43.00;;;;;;4146180;28;20062;-70
2022/03/27 09:30:52;;;;;;;0.00;0.00;;;18.30;42.30;;;;;;4123395;28;20501;-69
2022/03/27 09:33:46;;;;;;;0.00;0.00;;;18.90;41.30;;;;;;4118557;28;20513;-68
2022/03/27 09:36:11;;;;;;;0.00;0.00;;;19.40;40.60;;;;;;4133488;28;20062;-67
2022/03/27 09:38:33;;;;;;;0.00;0.00;;;19.70;39.90;;;;;;4106003;28;20049;-70
2022/03/27 09:40:57;;;;;;;0.00;0.00;;;20.00;39.50;;;;;;4145850;28;20042;-69
2022/03/27 09:43:21;;;;;;;0.00;0.00;;;20.00;39.80;;;;;;4133784;28;20068;-71
2022/03/27 09:45:56;;;;;;;0.00;0.00;;;20.00;40.20;;;;;;4119384;28;20501;-69
2022/03/27 09:48:20;;;;;;;0.00;0.00;;;20.00;40.60;;;;;;4130738;28;20034;-73
2022/03/27 09:50:42;;;;;;;0.00;0.00;;;19.80;40.40;;;;;;4127067;28;20141;-69
2022/03/27 09:53:23;;;;;;;0.00;0.00;;;19.60;40.40;;;;;;4147848;28;20046;-70
2022/03/27 09:56:06;;;;;;;0.00;0.00;;;19.50;40.60;;;;;;4159331;28;20195;-68
2022/03/27 09:58:36;;;;;;;0.00;0.00;;;19.60;41.40;;;;;;4146283;28;20052;-68
2022/03/27 10:01:17;;;;;;;0.00;0.00;;;19.50;42.00;;;;;;4146791;28;20124;-69
2022/03/27 10:04:04;;;;;;;0.00;0.00;;;19.50;41.80;;;;;;4146969;28;20052;-69
2022/03/27 10:06:32;;;;;;;0.00;0.00;;;19.40;42.10;;;;;;4134853;28;20077;-72
2022/03/27 10:08:54;;;;;;;0.00;0.00;;;19.30;41.80;;;;;;4134948;28;20085;-70
2022/03/27 10:11:21;;;;;;;0.00;0.00;;;19.30;41.70;;;;;;4148335;28;20088;-69
2022/03/27 10:13:43;;;;;;;0.00;0.00;;;19.30;41.80;;;;;;4134895;28;20054;-71
2022/03/27 10:16:05;;;;;;;0.00;0.00;;;19.20;41.90;;;;;;4131715;28;20062;-69
2022/03/27 10:18:32;;;;;;;0.00;0.00;;;19.20;42.10;;;;;;4134894;28;20058;-72
2022/03/27 10:20:59;;;;;;;0.00;0.00;;;19.30;41.90;;;;;;4134514;28;20374;-69
2022/03/27 10:23:26;;;;;;;0.00;0.00;;;19.20;42.30;;;;;;4144149;28;20049;-72
2022/03/27 10:26:01;;;;;;;0.00;0.00;;;19.20;42.50;;;;;;4130145;28;20042;-69
2022/03/27 10:28:24;;;;;;;0.00;0.00;;;19.30;42.70;;;;;;4131708;28;20045;-70
2022/03/27 10:30:52;;;;;;;0.00;0.00;;;19.30;42.30;;;;;;4146033;28;20056;-69
2022/03/27 10:33:18;;;;;;;0.00;0.00;;;19.30;42.70;;;;;;4125675;28;20046;-70
2022/03/27 10:36:05;;;;;;;0.00;0.00;;;19.10;42.30;;;;;;4131605;28;20056;-70
2022/03/27 10:38:42;;;;;;;0.00;0.00;;;18.30;41.90;;;;;;4141798;28;20473;-71
2022/03/27 10:41:17;;;;;;;0.00;0.00;;;17.80;43.20;;;;;;4144928;28;20042;-69
2022/03/27 10:44:01;;;;;;;0.00;0.00;;;17.40;44.30;;;;;;4147409;28;20132;-69
2022/03/27 10:46:29;;;;;;;0.00;0.00;;;17.60;44.30;;;;;;4131166;28;20464;-72
2022/03/27 10:49:16;;;;;;;0.00;0.00;;;17.80;44.50;;;;;;4105246;28;20047;-72
2022/03/27 10:51:41;;;;;;;0.00;0.00;;;18.50;43.80;;;;;;4104489;28;20129;-71
2022/03/27 10:54:11;;;;;;;0.00;0.00;;;19.00;43.80;;;;;;4131561;28;20068;-70
2022/03/27 10:56:45;;;;;;;0.00;0.00;;;19.60;42.60;;;;;;4128460;28;20539;-69
2022/03/27 10:59:13;;;;;;;0.00;0.00;;;20.10;42.20;;;;;;4115520;28;20047;-71
2022/03/27 11:01:40;;;;;;;0.00;0.00;;;20.60;42.10;;;;;;4115844;28;20046;-71
2022/03/27 11:04:09;;;;;;;0.00;0.00;;;21.20;40.80;;;;;;4115409;28;20116;-71
2022/03/27 11:06:40;;;;;;;0.00;0.00;;;21.50;39.40;;;;;;4102442;28;20055;-70
2022/03/27 11:09:08;;;;;;;0.00;0.00;;;22.00;37.60;;;;;;4102788;28;20093;-70
2022/03/27 11:11:53;;;;;;;0.00;0.00;;;22.50;37.10;;;;;;4115400;28;20117;-70
2022/03/27 11:14:43;;;;;;;0.00;0.00;;;22.90;36.60;;;;;;4101848;28;20134;-73
2022/03/27 11:17:14;;;;;;;0.00;0.00;;;23.20;35.60;;;;;;4115425;28;20121;-70
2022/03/27 11:19:47;;;;;;;0.00;0.00;;;23.50;35.10;;;;;;4102822;28;20150;-70
2022/03/27 11:22:48;;;;;;;0.00;0.00;;;24.10;35.00;;;;;;4115495;28;20053;-70
2022/03/27 11:25:34;;;;;;;0.00;0.00;;;24.70;34.10;;;;;;4131534;28;20038;-70
2022/03/27 11:28:06;;;;;;;0.00;0.00;;;25.10;33.70;;;;;;4131405;28;20125;-71
2022/03/27 11:30:35;;;;;;;0.00;0.00;;;24.80;33.40;;;;;;4131128;28;20049;-70
2022/03/27 11:33:15;;;;;;;0.00;0.00;;;25.10;33.10;;;;;;4131449;28;20047;-71
2022/03/27 11:35:41;;;;;;;0.00;0.00;;;24.60;32.40;;;;;;4104712;28;20413;-71
2022/03/27 11:38:24;;;;;;;0.00;0.00;;;24.10;33.20;;;;;;4145166;28;20080;-70
2022/03/27 11:40:49;;;;;;;0.00;0.00;;;24.00;33.40;;;;;;4128538;28;20465;-69
2022/03/27 11:43:33;;;;;;;0.00;0.00;;;24.40;33.80;;;;;;4115495;28;20050;-72
2022/03/27 11:46:02;;;;;;;0.00;0.00;;;24.80;33.40;;;;;;4115160;28;20488;-70
2022/03/27 11:48:25;;;;;;;0.00;0.00;;;24.80;33.10;;;;;;4101567;28;20039;-68
2022/03/27 11:50:49;;;;;;;0.00;0.00;;;25.00;33.30;;;;;;4115378;28;20045;-70
2022/03/27 11:53:28;;;;;;;0.00;0.00;;;24.80;32.70;;;;;;4115156;28;20047;-73
2022/03/27 11:55:52;;;;;;;0.00;0.00;;;25.20;32.50;;;;;;4115193;28;20663;-71
2022/03/27 11:58:19;;;;;;;0.00;0.00;;;25.40;31.00;;;;;;4115003;28;20058;-71
2022/03/27 12:00:45;;;;;;;0.00;0.00;;;25.30;31.70;;;;;;4115261;28;20122;-69
2022/03/27 12:03:23;;;;;;;0.00;0.00;;;25.60;30.80;;;;;;4115739;28;20057;-70
2022/03/27 12:05:48;;;;;;;0.00;0.00;;;25.30;31.20;;;;;;4118215;28;20865;-70
2022/03/27 12:08:12;;;;;;;0.00;0.00;;;24.90;31.60;;;;;;4117859;28;20101;-69
2022/03/27 12:10:49;;;;;;;0.00;0.00;;;25.00;31.30;;;;;;4105120;28;20548;-70
2022/03/27 12:13:14;;;;;;;0.00;0.00;;;25.30;31.70;;;;;;4118086;28;20055;-69
2022/03/27 12:15:49;;;;;;;0.00;0.00;;;25.60;30.80;;;;;;4117991;28;20053;-69
2022/03/27 12:18:15;;;;;;;0.00;0.00;;;25.60;30.80;;;;;;4117376;28;20054;-70
2022/03/27 12:20:43;;;;;;;0.00;0.00;;;25.50;31.40;;;;;;4118197;28;20101;-73
2022/03/27 12:23:20;;;;;;;0.00;0.00;;;25.40;31.70;;;;;;4104369;28;20042;-72
2022/03/27 12:25:55;;;;;;;0.00;0.00;;;25.00;32.00;;;;;;4117846;28;20377;-70
2022/03/27 12:30:57;;;;;;;0.00;0.00;;;25.00;31.70;;;;;;4117869;28;20050;-72
2022/03/27 12:33:27;;;;;;;0.00;0.00;;;24.70;31.60;;;;;;4104599;28;20051;-69
2022/03/27 12:36:14;;;;;;;0.00;0.00;;;23.60;31.90;;;;;;4090974;28;20071;-68
2022/03/27 12:38:39;;;;;;;0.00;0.00;;;23.30;32.10;;;;;;4146797;28;20049;-69
2022/03/27 12:41:06;;;;;;;0.00;0.00;;;22.70;33.10;;;;;;4133911;28;20053;-70
2022/03/27 12:43:31;;;;;;;0.00;0.00;;;22.80;33.20;;;;;;4120310;28;20453;-71
2022/03/27 12:45:53;;;;;;;0.00;0.00;;;23.20;33.00;;;;;;4133751;28;20500;-69
2022/03/27 12:48:23;;;;;;;0.00;0.00;;;23.30;32.90;;;;;;4120414;28;20061;-71
2022/03/27 12:50:50;;;;;;;0.00;0.00;;;23.70;33.20;;;;;;4120130;28;20113;-70
2022/03/27 12:53:24;;;;;;;0.00;0.00;;;24.00;33.30;;;;;;4133549;28;20038;-71
2022/03/27 12:56:17;;;;;;;0.00;0.00;;;24.10;33.00;;;;;;4119992;28;20054;-70